sensor_id;sensor_type;location;lat;lon;timestamp;pressure;altitude;pressure_sealevel;temperature;humidity
40794;BME280;26502;51.886;15.604;2022-09-13T00:02:26;100530.08;;;11.52;68.77
40794;BME280;26502;51.886;15.604;2022-09-13T00:07:33;100523.64;;;11.40;68.81
40794;BME280;26502;51.886;15.604;2022-09-13T00:12:41;100522.17;;;11.41;68.90
40794;BME280;26502;51.886;15.604;2022-09-13T00:17:48;100516.79;;;11.42;68.98
40794;BME280;26502;51.886;15.604;2022-09-13T00:22:55;100512.52;;;11.37;69.05
40794;BME280;26502;51.886;15.604;2022-09-13T00:28:03;100510.85;;;11.39;69.35
40794;BME280;26502;51.886;15.604;2022-09-13T00:33:11;100510.98;;;11.31;69.09
40794;BME280;26502;51.886;15.604;2022-09-13T00:38:18;100509.07;;;11.25;69.38
40794;BME280;26502;51.886;15.604;2022-09-13T00:43:41;100508.19;;;11.25;69.48
40794;BME280;26502;51.886;15.604;2022-09-13T00:48:52;100502.02;;;11.19;69.26
40794;BME280;26502;51.886;15.604;2022-09-13T00:54:03;100492.61;;;11.00;69.08
40794;BME280;26502;51.886;15.604;2022-09-13T00:59:14;100485.48;;;10.86;69.22
40794;BME280;26502;51.886;15.604;2022-09-13T01:04:26;100472.74;;;10.84;69.35
40794;BME280;26502;51.886;15.604;2022-09-13T01:09:36;100469.83;;;10.86;69.44
40794;BME280;26502;51.886;15.604;2022-09-13T01:14:45;100467.63;;;10.93;69.53
40794;BME280;26502;51.886;15.604;2022-09-13T01:19:54;100461.77;;;10.93;69.36
40794;BME280;26502;51.886;15.604;2022-09-13T01:25:28;100448.80;;;10.93;69.33
40794;BME280;26502;51.886;15.604;2022-09-13T01:30:40;100445.91;;;10.79;69.14
40794;BME280;26502;51.886;15.604;2022-09-13T01:35:59;100437.81;;;10.48;69.06
40794;BME280;26502;51.886;15.604;2022-09-13T01:41:23;100430.45;;;10.41;69.46
40794;BME280;26502;51.886;15.604;2022-09-13T01:46:36;100423.78;;;10.33;69.60
40794;BME280;26502;51.886;15.604;2022-09-13T01:51:48;100418.77;;;10.35;69.70
40794;BME280;26502;51.886;15.604;2022-09-13T01:56:59;100416.83;;;10.40;69.67
40794;BME280;26502;51.886;15.604;2022-09-13T02:02:09;100410.34;;;10.26;69.33
40794;BME280;26502;51.886;15.604;2022-09-13T02:07:20;100396.39;;;10.14;69.78
40794;BME280;26502;51.886;15.604;2022-09-13T02:12:32;100386.98;;;10.19;69.91
40794;BME280;26502;51.886;15.604;2022-09-13T02:17:44;100379.08;;;10.22;70.06
40794;BME280;26502;51.886;15.604;2022-09-13T02:22:55;100369.88;;;10.21;70.06
40794;BME280;26502;51.886;15.604;2022-09-13T02:28:06;100364.79;;;10.19;69.87
40794;BME280;26502;51.886;15.604;2022-09-13T02:33:17;100358.86;;;10.17;69.86
40794;BME280;26502;51.886;15.604;2022-09-13T02:38:30;100354.48;;;10.10;69.57
40794;BME280;26502;51.886;15.604;2022-09-13T02:43:41;100354.70;;;9.94;69.62
40794;BME280;26502;51.886;15.604;2022-09-13T02:48:57;100353.77;;;9.95;69.96
40794;BME280;26502;51.886;15.604;2022-09-13T02:54:13;100347.20;;;9.95;69.87
40794;BME280;26502;51.886;15.604;2022-09-13T02:59:26;100342.20;;;9.96;70.05
40794;BME280;26502;51.886;15.604;2022-09-13T03:04:35;100340.64;;;9.80;69.77
40794;BME280;26502;51.886;15.604;2022-09-13T03:09:45;100338.86;;;9.80;69.95
40794;BME280;26502;51.886;15.604;2022-09-13T03:14:59;100337.16;;;9.78;69.94
40794;BME280;26502;51.886;15.604;2022-09-13T03:20:12;100334.55;;;9.71;70.11
40794;BME280;26502;51.886;15.604;2022-09-13T03:25:32;100330.30;;;9.81;70.38
40794;BME280;26502;51.886;15.604;2022-09-13T03:30:47;100323.16;;;9.77;70.19
40794;BME280;26502;51.886;15.604;2022-09-13T03:36:00;100320.71;;;9.66;69.84
40794;BME280;26502;51.886;15.604;2022-09-13T03:41:14;100315.55;;;9.51;69.91
40794;BME280;26502;51.886;15.604;2022-09-13T03:46:26;100314.52;;;9.51;70.13
40794;BME280;26502;51.886;15.604;2022-09-13T03:51:36;100317.34;;;9.51;70.54
40794;BME280;26502;51.886;15.604;2022-09-13T03:56:45;100315.91;;;9.56;70.48
40794;BME280;26502;51.886;15.604;2022-09-13T04:02:11;100311.83;;;9.62;70.58
40794;BME280;26502;51.886;15.604;2022-09-13T04:07:19;100305.08;;;9.56;70.43
40794;BME280;26502;51.886;15.604;2022-09-13T04:12:26;100298.48;;;9.53;70.63
40794;BME280;26502;51.886;15.604;2022-09-13T04:17:36;100289.55;;;9.34;70.33
40794;BME280;26502;51.886;15.604;2022-09-13T04:22:44;100288.48;;;9.18;70.73
40794;BME280;26502;51.886;15.604;2022-09-13T04:27:56;100273.04;;;9.24;70.78
40794;BME280;26502;51.886;15.604;2022-09-13T04:33:04;100262.95;;;9.29;70.85
40794;BME280;26502;51.886;15.604;2022-09-13T04:38:12;100260.99;;;9.34;70.84
40794;BME280;26502;51.886;15.604;2022-09-13T04:43:20;100265.22;;;9.35;71.04
40794;BME280;26502;51.886;15.604;2022-09-13T04:48:27;100264.90;;;9.39;71.02
40794;BME280;26502;51.886;15.604;2022-09-13T04:53:34;100270.30;;;9.42;71.05
40794;BME280;26502;51.886;15.604;2022-09-13T04:58:42;100268.29;;;9.49;71.14
40794;BME280;26502;51.886;15.604;2022-09-13T05:03:49;100261.95;;;9.53;70.97
40794;BME280;26502;51.886;15.604;2022-09-13T05:08:57;100254.66;;;9.49;71.05
40794;BME280;26502;51.886;15.604;2022-09-13T05:14:04;100246.23;;;9.51;71.23
40794;BME280;26502;51.886;15.604;2022-09-13T05:19:12;100243.90;;;9.52;71.03
40794;BME280;26502;51.886;15.604;2022-09-13T05:24:18;100250.52;;;9.61;71.23
40794;BME280;26502;51.886;15.604;2022-09-13T05:29:25;100235.98;;;9.66;71.10
40794;BME280;26502;51.886;15.604;2022-09-13T05:34:32;100233.48;;;9.66;71.23
40794;BME280;26502;51.886;15.604;2022-09-13T05:39:40;100226.66;;;9.73;71.53
40794;BME280;26502;51.886;15.604;2022-09-13T05:44:48;100226.77;;;9.85;71.65
40794;BME280;26502;51.886;15.604;2022-09-13T05:49:55;100220.38;;;10.04;71.70
40794;BME280;26502;51.886;15.604;2022-09-13T05:55:02;100214.46;;;10.16;71.73
40794;BME280;26502;51.886;15.604;2022-09-13T06:00:11;100204.33;;;10.35;72.35
40794;BME280;26502;51.886;15.604;2022-09-13T06:05:19;100202.85;;;10.55;72.40
40794;BME280;26502;51.886;15.604;2022-09-13T06:10:26;100201.81;;;10.67;72.55
40794;BME280;26502;51.886;15.604;2022-09-13T06:15:33;100206.20;;;10.82;72.56
40794;BME280;26502;51.886;15.604;2022-09-13T06:20:40;100200.87;;;10.99;72.55
40794;BME280;26502;51.886;15.604;2022-09-13T06:25:48;100192.10;;;11.21;72.83
40794;BME280;26502;51.886;15.604;2022-09-13T06:31:02;100185.88;;;11.46;73.14
40794;BME280;26502;51.886;15.604;2022-09-13T06:36:12;100180.08;;;11.73;73.53
40794;BME280;26502;51.886;15.604;2022-09-13T06:41:22;100171.27;;;11.95;73.61
40794;BME280;26502;51.886;15.604;2022-09-13T06:46:33;100160.15;;;12.23;73.72
40794;BME280;26502;51.886;15.604;2022-09-13T06:51:41;100150.08;;;12.52;73.87
40794;BME280;26502;51.886;15.604;2022-09-13T06:56:48;100148.09;;;12.81;74.03
40794;BME280;26502;51.886;15.604;2022-09-13T07:01:55;100156.98;;;13.06;73.87
40794;BME280;26502;51.886;15.604;2022-09-13T07:07:02;100154.16;;;13.30;73.97
40794;BME280;26502;51.886;15.604;2022-09-13T07:12:10;100152.31;;;13.53;73.82
40794;BME280;26502;51.886;15.604;2022-09-13T07:17:17;100145.23;;;13.78;73.95
40794;BME280;26502;51.886;15.604;2022-09-13T07:22:24;100153.23;;;13.92;73.73
40794;BME280;26502;51.886;15.604;2022-09-13T07:27:32;100157.04;;;14.04;73.80
40794;BME280;26502;51.886;15.604;2022-09-13T07:32:39;100150.61;;;14.23;73.90
40794;BME280;26502;51.886;15.604;2022-09-13T07:37:46;100151.27;;;14.49;73.97
40794;BME280;26502;51.886;15.604;2022-09-13T07:42:54;100150.65;;;14.61;73.60
40794;BME280;26502;51.886;15.604;2022-09-13T07:48:02;100149.91;;;14.77;73.57
40794;BME280;26502;51.886;15.604;2022-09-13T07:53:09;100148.90;;;14.85;73.45
40794;BME280;26502;51.886;15.604;2022-09-13T07:58:17;100144.50;;;14.96;73.41
40794;BME280;26502;51.886;15.604;2022-09-13T08:03:24;100140.39;;;15.02;73.33
40794;BME280;26502;51.886;15.604;2022-09-13T08:08:32;100134.52;;;15.05;73.29
40794;BME280;26502;51.886;15.604;2022-09-13T08:13:39;100133.45;;;15.07;73.24
40794;BME280;26502;51.886;15.604;2022-09-13T08:18:47;100142.77;;;15.07;73.20
40794;BME280;26502;51.886;15.604;2022-09-13T08:23:56;100139.94;;;15.03;73.16
40794;BME280;26502;51.886;15.604;2022-09-13T08:29:05;100135.55;;;15.08;73.51
40794;BME280;26502;51.886;15.604;2022-09-13T08:34:15;100133.48;;;15.10;73.53
40794;BME280;26502;51.886;15.604;2022-09-13T08:39:24;100134.07;;;15.15;73.95
40794;BME280;26502;51.886;15.604;2022-09-13T08:44:34;100124.94;;;15.33;74.03
40794;BME280;26502;51.886;15.604;2022-09-13T08:49:45;100117.86;;;15.37;73.92
40794;BME280;26502;51.886;15.604;2022-09-13T08:54:54;100121.90;;;15.36;74.31
40794;BME280;26502;51.886;15.604;2022-09-13T09:00:06;100126.79;;;15.44;74.36
40794;BME280;26502;51.886;15.604;2022-09-13T09:05:21;100124.61;;;15.47;74.33
40794;BME280;26502;51.886;15.604;2022-09-13T09:10:31;100122.48;;;15.52;74.55
40794;BME280;26502;51.886;15.604;2022-09-13T09:15:43;100120.17;;;15.61;74.47
40794;BME280;26502;51.886;15.604;2022-09-13T09:20:54;100112.35;;;15.66;74.34
40794;BME280;26502;51.886;15.604;2022-09-13T09:26:14;100122.90;;;15.74;74.38
40794;BME280;26502;51.886;15.604;2022-09-13T09:31:29;100125.80;;;15.80;74.46
40794;BME280;26502;51.886;15.604;2022-09-13T09:36:43;100126.33;;;15.86;74.62
40794;BME280;26502;51.886;15.604;2022-09-13T09:41:51;100128.02;;;15.82;74.13
40794;BME280;26502;51.886;15.604;2022-09-13T09:47:06;100125.94;;;15.81;74.33
40794;BME280;26502;51.886;15.604;2022-09-13T09:52:18;100115.06;;;15.89;74.46
40794;BME280;26502;51.886;15.604;2022-09-13T09:57:50;100100.41;;;16.00;74.56
40794;BME280;26502;51.886;15.604;2022-09-13T10:03:00;100090.19;;;16.14;74.62
40794;BME280;26502;51.886;15.604;2022-09-13T10:08:19;100081.12;;;16.29;74.53
40794;BME280;26502;51.886;15.604;2022-09-13T10:13:31;100075.33;;;16.38;74.27
40794;BME280;26502;51.886;15.604;2022-09-13T10:18:39;100071.90;;;16.44;74.39
40794;BME280;26502;51.886;15.604;2022-09-13T10:23:47;100066.69;;;16.50;74.44
40794;BME280;26502;51.886;15.604;2022-09-13T10:28:58;100054.42;;;16.56;74.48
40794;BME280;26502;51.886;15.604;2022-09-13T10:34:10;100045.88;;;16.69;74.49
40794;BME280;26502;51.886;15.604;2022-09-13T10:39:20;100044.52;;;16.75;74.41
40794;BME280;26502;51.886;15.604;2022-09-13T10:44:31;100041.58;;;16.77;74.31
40794;BME280;26502;51.886;15.604;2022-09-13T10:49:43;100044.48;;;16.76;74.33
40794;BME280;26502;51.886;15.604;2022-09-13T10:54:52;100044.92;;;16.77;74.21
40794;BME280;26502;51.886;15.604;2022-09-13T11:00:01;100038.79;;;16.88;74.47
40794;BME280;26502;51.886;15.604;2022-09-13T11:05:16;100027.06;;;17.03;74.38
40794;BME280;26502;51.886;15.604;2022-09-13T11:10:30;100021.88;;;17.15;74.31
40794;BME280;26502;51.886;15.604;2022-09-13T11:15:48;100018.98;;;17.26;74.24
40794;BME280;26502;51.886;15.604;2022-09-13T11:21:06;100010.24;;;17.43;74.14
40794;BME280;26502;51.886;15.604;2022-09-13T11:26:32;100004.86;;;17.58;73.97
40794;BME280;26502;51.886;15.604;2022-09-13T11:31:45;99986.13;;;18.00;74.09
40794;BME280;26502;51.886;15.604;2022-09-13T11:37:03;99979.15;;;18.57;73.53
40794;BME280;26502;51.886;15.604;2022-09-13T11:42:24;99968.03;;;18.90;72.72
40794;BME280;26502;51.886;15.604;2022-09-13T11:47:35;99960.75;;;19.23;72.29
40794;BME280;26502;51.886;15.604;2022-09-13T11:52:56;99957.98;;;19.55;71.50
40794;BME280;26502;51.886;15.604;2022-09-13T11:58:12;99949.81;;;19.96;71.32
40794;BME280;26502;51.886;15.604;2022-09-13T12:03:24;99945.19;;;20.25;70.39
40794;BME280;26502;51.886;15.604;2022-09-13T12:08:36;99948.34;;;20.56;69.92
40794;BME280;26502;51.886;15.604;2022-09-13T12:13:49;99940.23;;;20.69;67.73
40794;BME280;26502;51.886;15.604;2022-09-13T12:18:58;99937.08;;;20.76;67.74
40794;BME280;26502;51.886;15.604;2022-09-13T12:24:13;99933.63;;;21.05;67.27
40794;BME280;26502;51.886;15.604;2022-09-13T12:29:26;99939.00;;;21.12;66.95
40794;BME280;26502;51.886;15.604;2022-09-13T12:34:39;99935.63;;;21.07;66.63
40794;BME280;26502;51.886;15.604;2022-09-13T12:40:10;99929.06;;;20.98;66.20
40794;BME280;26502;51.886;15.604;2022-09-13T12:45:33;99923.57;;;20.69;66.05
40794;BME280;26502;51.886;15.604;2022-09-13T12:51:00;99914.46;;;20.75;66.31
40794;BME280;26502;51.886;15.604;2022-09-13T12:56:30;99901.51;;;21.17;66.21
40794;BME280;26502;51.886;15.604;2022-09-13T13:01:45;99895.59;;;21.41;65.30
40794;BME280;26502;51.886;15.604;2022-09-13T13:06:56;99888.59;;;21.61;65.10
40794;BME280;26502;51.886;15.604;2022-09-13T13:12:05;99885.30;;;21.55;64.50
40794;BME280;26502;51.886;15.604;2022-09-13T13:17:37;99877.45;;;21.40;64.35
40794;BME280;26502;51.886;15.604;2022-09-13T13:22:52;99894.14;;;21.11;63.93
40794;BME280;26502;51.886;15.604;2022-09-13T13:28:00;99901.01;;;20.88;64.22
40794;BME280;26502;51.886;15.604;2022-09-13T13:33:16;99898.34;;;20.84;64.21
40794;BME280;26502;51.886;15.604;2022-09-13T13:38:42;99889.89;;;20.87;64.47
40794;BME280;26502;51.886;15.604;2022-09-13T13:43:52;99886.10;;;20.96;64.79
40794;BME280;26502;51.886;15.604;2022-09-13T13:54:58;99873.07;;;21.02;64.99
40794;BME280;26502;51.886;15.604;2022-09-13T14:00:12;99867.96;;;20.93;64.65
40794;BME280;26502;51.886;15.604;2022-09-13T14:05:23;99862.44;;;20.80;64.66
40794;BME280;26502;51.886;15.604;2022-09-13T14:10:40;99861.58;;;20.66;64.83
40794;BME280;26502;51.886;15.604;2022-09-13T14:15:57;99857.86;;;20.68;64.87
40794;BME280;26502;51.886;15.604;2022-09-13T14:21:19;99853.69;;;20.53;64.48
40794;BME280;26502;51.886;15.604;2022-09-13T14:26:27;99852.10;;;20.49;64.91
40794;BME280;26502;51.886;15.604;2022-09-13T14:31:36;99847.39;;;20.43;64.96
40794;BME280;26502;51.886;15.604;2022-09-13T14:36:51;99843.42;;;20.47;65.22
40794;BME280;26502;51.886;15.604;2022-09-13T14:42:12;99840.42;;;20.44;65.12
40794;BME280;26502;51.886;15.604;2022-09-13T14:47:25;99834.79;;;20.39;65.24
40794;BME280;26502;51.886;15.604;2022-09-13T14:52:36;99834.61;;;20.32;65.62
40794;BME280;26502;51.886;15.604;2022-09-13T14:57:49;99838.66;;;20.39;65.85
40794;BME280;26502;51.886;15.604;2022-09-13T15:03:02;99835.42;;;20.40;66.17
40794;BME280;26502;51.886;15.604;2022-09-13T15:08:44;99826.20;;;20.46;66.68
40794;BME280;26502;51.886;15.604;2022-09-13T15:14:11;99823.53;;;20.50;66.52
40794;BME280;26502;51.886;15.604;2022-09-13T15:19:35;99816.02;;;20.51;67.25
40794;BME280;26502;51.886;15.604;2022-09-13T15:24:46;99812.63;;;20.59;67.45
40794;BME280;26502;51.886;15.604;2022-09-13T15:29:55;99809.15;;;20.53;67.17
40794;BME280;26502;51.886;15.604;2022-09-13T15:35:14;99808.52;;;20.38;67.13
40794;BME280;26502;51.886;15.604;2022-09-13T15:40:23;99806.45;;;20.18;67.22
40794;BME280;26502;51.886;15.604;2022-09-13T15:45:31;99810.91;;;20.08;67.20
40794;BME280;26502;51.886;15.604;2022-09-13T15:50:38;99816.29;;;20.06;67.27
40794;BME280;26502;51.886;15.604;2022-09-13T15:55:50;99817.98;;;20.03;67.28
40794;BME280;26502;51.886;15.604;2022-09-13T16:00:59;99830.58;;;20.03;67.32
40794;BME280;26502;51.886;15.604;2022-09-13T16:06:07;99831.63;;;20.06;67.32
40794;BME280;26502;51.886;15.604;2022-09-13T16:11:14;99828.92;;;19.96;67.24
40794;BME280;26502;51.886;15.604;2022-09-13T16:16:22;99830.86;;;19.87;67.39
40794;BME280;26502;51.886;15.604;2022-09-13T16:21:31;99831.20;;;19.90;67.40
40794;BME280;26502;51.886;15.604;2022-09-13T16:26:38;99832.11;;;19.83;67.25
40794;BME280;26502;51.886;15.604;2022-09-13T16:31:46;99834.20;;;19.74;67.27
40794;BME280;26502;51.886;15.604;2022-09-13T16:36:53;99835.59;;;19.67;67.29
40794;BME280;26502;51.886;15.604;2022-09-13T16:42:00;99833.65;;;19.56;67.26
40794;BME280;26502;51.886;15.604;2022-09-13T16:47:07;99832.20;;;19.45;67.29
40794;BME280;26502;51.886;15.604;2022-09-13T16:52:15;99838.92;;;19.36;67.40
40794;BME280;26502;51.886;15.604;2022-09-13T16:57:22;99846.59;;;19.30;67.53
40794;BME280;26502;51.886;15.604;2022-09-13T17:02:30;99847.36;;;19.30;67.70
40794;BME280;26502;51.886;15.604;2022-09-13T17:07:37;99844.68;;;19.38;67.94
40794;BME280;26502;51.886;15.604;2022-09-13T17:12:44;99838.43;;;19.42;67.90
40794;BME280;26502;51.886;15.604;2022-09-13T17:17:51;99839.97;;;19.30;67.92
40794;BME280;26502;51.886;15.604;2022-09-13T17:22:59;99841.24;;;19.30;68.19
40794;BME280;26502;51.886;15.604;2022-09-13T17:28:06;99840.58;;;19.22;68.14
40794;BME280;26502;51.886;15.604;2022-09-13T17:33:13;99840.83;;;19.04;68.27
40794;BME280;26502;51.886;15.604;2022-09-13T17:38:20;99835.91;;;19.00;68.55
40794;BME280;26502;51.886;15.604;2022-09-13T17:43:29;99834.23;;;18.89;68.48
40794;BME280;26502;51.886;15.604;2022-09-13T17:48:34;99836.91;;;18.78;68.56
40794;BME280;26502;51.886;15.604;2022-09-13T17:53:44;99834.73;;;18.63;68.86
40794;BME280;26502;51.886;15.604;2022-09-13T17:58:51;99836.48;;;18.57;68.96
40794;BME280;26502;51.886;15.604;2022-09-13T18:03:58;99839.89;;;18.54;69.13
40794;BME280;26502;51.886;15.604;2022-09-13T18:09:06;99838.06;;;18.54;69.26
40794;BME280;26502;51.886;15.604;2022-09-13T18:14:16;99830.02;;;18.54;69.17
40794;BME280;26502;51.886;15.604;2022-09-13T18:19:25;99830.23;;;18.51;69.17
40794;BME280;26502;51.886;15.604;2022-09-13T18:24:33;99826.98;;;18.44;69.21
40794;BME280;26502;51.886;15.604;2022-09-13T18:29:40;99829.49;;;18.40;69.13
40794;BME280;26502;51.886;15.604;2022-09-13T18:34:48;99829.93;;;18.16;69.00
40794;BME280;26502;51.886;15.604;2022-09-13T18:39:55;99829.35;;;17.83;69.09
40794;BME280;26502;51.886;15.604;2022-09-13T18:45:03;99829.56;;;17.57;69.34
40794;BME280;26502;51.886;15.604;2022-09-13T18:50:09;99828.29;;;17.33;69.51
40794;BME280;26502;51.886;15.604;2022-09-13T18:55:17;99830.02;;;17.09;69.73
40794;BME280;26502;51.886;15.604;2022-09-13T19:00:24;99827.30;;;16.97;70.10
40794;BME280;26502;51.886;15.604;2022-09-13T19:05:33;99832.63;;;17.10;70.51
40794;BME280;26502;51.886;15.604;2022-09-13T19:10:39;99831.17;;;17.20;70.62
40794;BME280;26502;51.886;15.604;2022-09-13T19:15:46;99832.83;;;17.17;70.57
40794;BME280;26502;51.886;15.604;2022-09-13T19:21:01;99832.94;;;17.03;70.68
40794;BME280;26502;51.886;15.604;2022-09-13T19:26:12;99832.98;;;16.98;70.77
40794;BME280;26502;51.886;15.604;2022-09-13T19:31:18;99832.80;;;16.77;70.79
40794;BME280;26502;51.886;15.604;2022-09-13T19:36:30;99837.48;;;16.67;71.13
40794;BME280;26502;51.886;15.604;2022-09-13T19:41:38;99836.27;;;16.69;71.35
40794;BME280;26502;51.886;15.604;2022-09-13T19:46:47;99835.21;;;16.74;71.50
40794;BME280;26502;51.886;15.604;2022-09-13T19:51:56;99836.55;;;16.80;71.56
40794;BME280;26502;51.886;15.604;2022-09-13T19:57:04;99838.92;;;16.84;71.42
40794;BME280;26502;51.886;15.604;2022-09-13T20:02:13;99831.16;;;16.73;71.49
40794;BME280;26502;51.886;15.604;2022-09-13T20:07:20;99832.95;;;16.39;71.32
40794;BME280;26502;51.886;15.604;2022-09-13T20:12:29;99832.95;;;16.14;71.65
40794;BME280;26502;51.886;15.604;2022-09-13T20:17:36;99833.00;;;16.05;71.94
40794;BME280;26502;51.886;15.604;2022-09-13T20:22:43;99830.16;;;16.02;72.07
40794;BME280;26502;51.886;15.604;2022-09-13T20:27:50;99827.30;;;16.02;72.20
40794;BME280;26502;51.886;15.604;2022-09-13T20:32:58;99824.78;;;15.92;72.11
40794;BME280;26502;51.886;15.604;2022-09-13T20:38:06;99827.30;;;15.76;72.11
40794;BME280;26502;51.886;15.604;2022-09-13T20:43:14;99825.79;;;15.55;72.36
40794;BME280;26502;51.886;15.604;2022-09-13T20:48:21;99826.85;;;15.48;72.75
40794;BME280;26502;51.886;15.604;2022-09-13T20:53:31;99825.42;;;15.52;72.89
40794;BME280;26502;51.886;15.604;2022-09-13T20:58:41;99815.00;;;15.59;72.75
40794;BME280;26502;51.886;15.604;2022-09-13T21:03:51;99818.71;;;15.59;72.86
40794;BME280;26502;51.886;15.604;2022-09-13T21:08:59;99816.86;;;15.44;72.73
40794;BME280;26502;51.886;15.604;2022-09-13T21:14:08;99815.23;;;15.39;73.07
40794;BME280;26502;51.886;15.604;2022-09-13T21:19:16;99814.67;;;15.39;73.04
40794;BME280;26502;51.886;15.604;2022-09-13T21:24:24;99818.02;;;15.26;73.05
40794;BME280;26502;51.886;15.604;2022-09-13T21:29:31;99815.83;;;15.27;73.45
40794;BME280;26502;51.886;15.604;2022-09-13T21:34:39;99818.21;;;15.26;73.49
40794;BME280;26502;51.886;15.604;2022-09-13T21:39:48;99820.02;;;15.18;73.55
40794;BME280;26502;51.886;15.604;2022-09-13T21:44:55;99823.95;;;15.06;73.73
40794;BME280;26502;51.886;15.604;2022-09-13T21:50:03;99824.85;;;15.04;73.96
40794;BME280;26502;51.886;15.604;2022-09-13T21:55:10;99826.55;;;15.05;73.97
40794;BME280;26502;51.886;15.604;2022-09-13T22:00:17;99827.98;;;15.02;73.93
40794;BME280;26502;51.886;15.604;2022-09-13T22:05:25;99827.10;;;14.91;74.11
40794;BME280;26502;51.886;15.604;2022-09-13T22:10:32;99819.39;;;14.88;74.29
40794;BME280;26502;51.886;15.604;2022-09-13T22:15:41;99811.73;;;14.91;74.25
40794;BME280;26502;51.886;15.604;2022-09-13T22:20:48;99813.14;;;14.77;74.26
40794;BME280;26502;51.886;15.604;2022-09-13T22:25:55;99812.19;;;14.64;74.38
40794;BME280;26502;51.886;15.604;2022-09-13T22:31:07;99804.56;;;14.57;74.42
40794;BME280;26502;51.886;15.604;2022-09-13T22:36:15;99808.07;;;14.52;74.62
40794;BME280;26502;51.886;15.604;2022-09-13T22:41:23;99819.96;;;14.54;74.75
40794;BME280;26502;51.886;15.604;2022-09-13T22:46:32;99816.19;;;14.48;74.86
40794;BME280;26502;51.886;15.604;2022-09-13T22:51:39;99821.03;;;14.51;74.86
40794;BME280;26502;51.886;15.604;2022-09-13T22:56:46;99821.65;;;14.41;74.82
40794;BME280;26502;51.886;15.604;2022-09-13T23:01:54;99822.55;;;14.44;74.98
40794;BME280;26502;51.886;15.604;2022-09-13T23:07:00;99820.20;;;14.44;75.05
40794;BME280;26502;51.886;15.604;2022-09-13T23:12:07;99824.09;;;14.42;75.16
40794;BME280;26502;51.886;15.604;2022-09-13T23:17:14;99827.64;;;14.39;75.24
40794;BME280;26502;51.886;15.604;2022-09-13T23:22:21;99823.56;;;14.39;75.34
40794;BME280;26502;51.886;15.604;2022-09-13T23:27:28;99824.82;;;14.36;75.52
40794;BME280;26502;51.886;15.604;2022-09-13T23:32:36;99834.42;;;14.25;75.63
40794;BME280;26502;51.886;15.604;2022-09-13T23:37:45;99833.91;;;14.18;75.60
40794;BME280;26502;51.886;15.604;2022-09-13T23:42:53;99829.41;;;14.13;75.78
40794;BME280;26502;51.886;15.604;2022-09-13T23:48:00;99835.30;;;14.01;75.76
40794;BME280;26502;51.886;15.604;2022-09-13T23:53:07;99841.05;;;13.89;76.02
40794;BME280;26502;51.886;15.604;2022-09-13T23:58:14;99839.61;;;13.89;76.28
